SDQ weather

Las Américas International Airport
Santo Domingo, Distrito Nacional, Dominican Republic

Public forecast

Using degrees Celsius for public forecast. Weather courtesy of forecast.io.

Current aviation weather report (METAR) for Las Américas International Airport

Retrieved 2019/10/16 10:00 UTC (31 minutes ago):

MDSD 161000Z 03005KT 9999 FEW016CB FEW018 23/23 Q1013 CB/S DISPT

Aviation forecast (TAF) for Las Américas International Airport

Forecast is more than 6 hours old.

Retrieved 2019-10-16 00:08 UTC (10 hours ago):

TAF MDSD 152200Z 1600/1624 05006KT 9999 FEW018CB SCT020 PROB30 1606/1612 8000 -TSRA FEW016CB SCT016 SCT070